Details for EasyJet at LFPG




Go Back


Latest METAR
Local Time

LFPG 240730Z 04003KT 330V080 6000 SCT006 SCT260 17/15 Q1018 NOSIG

24/05/2018, 09:43:56

Description
Results
EasyJet Logo
Number of Pilots based at LFPG
0 Pilots Based here
Number of EasyJet Flights Departed from LFPG
10 Flights Departed
Number of EasyJet Flights Arrived at LFPG
5 Flights Arrived
Number of EasyJet Schedules Departing from LFPG
187 Schedules
Number of EasyJet Schedules Arriving at LFPG
185 Schedules
Number of EasyJet Schedules Departing from LFPG availible today
75 Schedules Today
Number of EasyJet Schedules Arriving at LFPG availible today
75 Schedules Today
Average Landing Rate at LFPG
-229 fpm
EasyJet Average Landing Rate at LFPG
-205 fpm
Total Fuel Purchased at LFPG by EasyJet
31,719.72 kgs / 69,929.29 lbs

Pilots Based at LFPG


Pilot ID
Pilot Name
Pilot Rank
No. of Flights
No. of Flying Hours
There are no pilots assigned to this hub!   Will you be the first?
Content